.
WxDataArchive / Data Records for 2012-11-07
2012-11-06 November 2012 2012-11-08

Data Records for Wednesday, 07 November 2012

Time	Temp	Chill	HIndex	Humid	Dewpt	 Wind 	HiWind	WindDir	Rain 	Barom 
-----	----	-----	------	-----	-----	------	------	-------	-----	----- 
00:00	36.2	36.2	36.2	77	29.7	1	4	22	0.00	29.942 
00:05	36.0	36.0	36.0	77	29.5	1	3	68	0.00	29.942 
00:10	36.0	36.0	36.0	77	29.5	1	3	68	0.00	29.942 
00:15	35.9	35.9	35.9	77	29.4	1	3	68	0.00	29.938 
00:20	35.9	35.9	35.9	77	29.4	1	5	90	0.00	29.938 
00:25	35.9	35.9	35.9	77	29.4	1	4	90	0.00	29.938 
00:30	36.0	36.0	36.0	77	29.5	2	5	90	0.00	29.942 
00:35	36.0	36.0	36.0	77	29.5	1	4	90	0.00	29.942 
00:40	36.0	36.0	36.0	77	29.5	1	4	90	0.00	29.942 
00:45	36.0	36.0	36.0	77	29.5	1	4	90	0.00	29.939 
00:50	36.0	36.0	36.0	77	29.5	2	4	90	0.00	29.939 
00:55	36.0	36.0	36.0	77	29.5	1	3	90	0.00	29.939 
01:00	36.2	36.2	36.2	77	29.7	1	3	90	0.00	29.937 
01:05	36.2	36.2	36.2	77	29.7	1	4	90	0.00	29.937 
01:10	36.2	36.2	36.2	77	29.7	1	4	90	0.00	29.937 
01:15	36.2	36.2	36.2	77	29.7	1	3	90	0.00	29.934 
01:20	36.2	36.2	36.2	77	29.7	1	4	90	0.00	29.934 
01:25	36.2	36.2	36.2	77	29.7	1	3	90	0.00	29.934 
01:30	36.2	36.2	36.2	77	29.7	1	4	90	0.00	29.933 
01:35	36.0	36.0	36.0	77	29.5	1	4	68	0.00	29.933 
01:40	36.0	36.0	36.0	77	29.5	1	3	68	0.00	29.933 
01:45	36.0	36.0	36.0	77	29.5	0	2	68	0.00	29.931 
01:50	36.0	36.0	36.0	78	29.8	0	2	68	0.00	29.931 
01:55	36.0	36.0	36.0	77	29.5	1	4	68	0.00	29.931 
02:00	36.0	36.0	36.0	77	29.5	0	2	68	0.00	29.931 
02:05	36.0	36.0	36.0	78	29.8	1	4	68	0.00	29.931 
02:10	36.0	36.0	36.0	77	29.5	2	4	68	0.00	29.931 
02:15	36.0	36.0	36.0	77	29.5	2	6	68	0.00	29.931 
02:20	36.0	36.0	36.0	77	29.5	1	5	68	0.00	29.931 
02:25	35.9	35.9	35.9	77	29.4	1	3	68	0.00	29.931 
02:30	35.9	35.9	35.9	77	29.4	1	5	112	0.00	29.933 
02:35	35.9	35.9	35.9	77	29.4	1	5	112	0.00	29.933 
02:40	36.0	36.0	36.0	77	29.5	2	4	68	0.00	29.933 
02:45	36.0	36.0	36.0	77	29.5	2	4	68	0.00	29.933 
02:50	36.0	36.0	36.0	77	29.5	1	4	68	0.00	29.933 
02:55	36.0	36.0	36.0	77	29.5	1	5	90	0.00	29.933 
03:00	36.0	36.0	36.0	77	29.5	1	2	90	0.00	29.936 
03:05	36.0	36.0	36.0	77	29.5	1	3	90	0.00	29.936 
03:10	36.0	36.0	36.0	77	29.5	0	3	90	0.00	29.936 
03:15	36.0	36.0	36.0	77	29.5	0	1	90	0.00	29.937 
03:20	36.0	36.0	36.0	77	29.5	0	2	90	0.00	29.937 
03:25	35.9	35.9	35.9	78	29.7	0	4	90	0.00	29.937 
03:30	35.9	35.9	35.9	78	29.7	0	2	90	0.00	29.937 
03:35	35.9	35.9	35.9	78	29.7	1	3	90	0.00	29.937 
03:40	35.9	35.9	35.9	78	29.7	0	2	90	0.00	29.937 
03:45	35.9	35.9	35.9	79	30.0	0	2	90	0.00	29.937 
03:50	35.9	35.9	35.9	79	30.0	0	2	90	0.00	29.937 
03:55	35.8	35.8	35.8	79	29.9	0	2	90	0.00	29.937 
04:00	35.8	35.8	35.8	80	30.2	0	1	90	0.00	29.941 
04:05	35.6	35.6	35.6	80	30.1	0	2	90	0.00	29.941 
04:10	35.5	35.5	35.5	80	30.0	0	2	90	0.00	29.941 
04:15	35.5	35.5	35.5	80	30.0	0	3	90	0.00	29.940 
04:20	35.3	35.3	35.3	80	29.8	0	2	90	0.00	29.940 
04:25	35.2	35.2	35.2	81	30.0	0	3	90	0.00	29.940 
04:30	35.0	35.0	35.0	81	29.8	0	3	90	0.00	29.945 
04:35	34.9	34.9	34.9	81	29.7	0	3	90	0.00	29.945 
04:40	34.7	34.7	34.7	82	29.8	0	3	90	0.00	29.945 
04:45	34.6	34.6	34.6	82	29.7	0	2	90	0.00	29.947 
04:50	34.4	34.4	34.4	83	29.8	1	3	90	0.00	29.947 
04:55	34.4	34.4	34.4	83	29.8	1	4	90	0.00	29.947 
05:00	34.3	34.3	34.3	83	29.7	1	4	90	0.00	29.949 
05:05	34.3	34.3	34.3	84	30.0	1	6	90	0.00	29.949 
05:10	34.3	34.3	34.3	84	30.0	2	5	90	0.00	29.949 
05:15	34.3	34.3	34.3	84	30.0	1	5	90	0.00	29.959 
05:20	34.3	34.3	34.3	84	30.0	0	1	90	0.00	29.959 
05:25	34.1	34.1	34.1	84	29.8	0	1	90	0.00	29.959 
05:30	34.1	34.1	34.1	84	29.8	0	3	90	0.00	29.965 
05:35	34.1	34.1	34.1	85	30.1	0	3	90	0.00	29.965 
05:40	34.0	34.0	34.0	85	30.0	1	3	90	0.00	29.965 
05:45	33.8	33.8	33.8	85	29.8	1	5	90	0.00	29.967 
05:50	33.8	33.8	33.8	86	30.1	2	6	90	0.00	29.967 
05:55	33.7	33.7	33.7	86	30.0	1	4	68	0.00	29.967 
06:00	33.7	33.7	33.7	87	30.3	1	3	90	0.00	29.968 
06:05	33.7	33.7	33.7	87	30.3	0	5	90	0.00	29.968 
06:10	33.7	33.7	33.7	87	30.3	0	3	90	0.00	29.968 
06:15	33.7	33.7	33.7	87	30.3	0	2	90	0.00	29.970 
06:20	33.7	33.7	33.7	87	30.3	1	3	90	0.00	29.970 
06:25	33.7	33.7	33.7	87	30.3	0	1	90	0.00	29.970 
06:30	33.7	33.7	33.7	87	30.3	0	3	90	0.00	29.977 
06:35	33.7	33.7	33.7	87	30.3	0	2	90	0.00	29.977 
06:40	33.5	33.5	33.5	88	30.3	0	2	90	0.00	29.977 
06:45	33.5	33.5	33.5	88	30.3	0	1	90	0.00	29.982 
06:50	33.4	33.4	33.4	88	30.2	0	6	90	0.00	29.982 
06:55	33.4	33.4	33.4	88	30.2	0	2	90	0.00	29.982 
07:00	33.2	33.2	33.2	88	30.0	0	2	90	0.00	29.985 
07:05	33.2	33.2	33.2	88	30.0	1	3	90	0.00	29.985 
07:10	33.2	33.2	33.2	88	30.0	1	4	90	0.00	29.985 
07:15	33.2	33.2	33.2	89	30.3	1	3	90	0.00	29.991 
07:20	33.2	33.2	33.2	89	30.3	1	4	90	0.00	29.991 
07:25	33.4	33.4	33.4	89	30.5	1	5	90	0.00	29.991 
07:30	33.4	33.4	33.4	89	30.5	1	7	90	0.00	29.999 
07:35	33.5	33.5	33.5	89	30.6	1	5	90	0.00	29.999 
07:40	33.5	33.5	33.5	89	30.6	1	4	112	0.00	29.999 
07:45	33.7	33.7	33.7	89	30.8	1	3	112	0.00	30.000 
07:50	33.7	33.7	33.7	89	30.8	0	2	112	0.00	30.000 
07:55	33.8	33.8	33.8	89	30.9	1	6	45	0.00	30.000 
08:00	33.8	33.8	33.8	89	30.9	1	3	68	0.00	30.004 
08:05	33.8	33.8	33.8	89	30.9	1	3	68	0.00	30.004 
08:10	34.0	34.0	34.0	89	31.1	1	3	68	0.00	30.004 
08:15	34.0	34.0	34.0	88	30.8	2	5	68	0.00	30.015 
08:20	33.8	33.8	33.8	88	30.6	3	6	90	0.00	30.015 
08:25	33.8	33.8	33.8	88	30.6	2	7	90	0.00	30.015 
08:30	33.8	33.8	33.8	88	30.6	1	6	112	0.00	30.024 
08:35	33.8	33.8	33.8	88	30.6	2	7	112	0.00	30.024 
08:40	33.7	33.7	33.7	88	30.5	2	6	90	0.00	30.024 
08:45	33.7	33.7	33.7	88	30.5	2	7	90	0.00	30.029 
08:50	33.7	33.7	33.7	88	30.5	2	5	90	0.00	30.029 
08:55	33.5	33.5	33.5	88	30.3	3	7	90	0.00	30.029 
09:00	33.5	33.5	33.5	89	30.6	2	6	90	0.00	30.030 
09:05	33.7	33.7	33.7	89	30.8	0	2	90	0.00	30.030 
09:10	33.8	33.8	33.8	89	30.9	1	5	90	0.00	30.030 
09:15	34.0	34.0	34.0	89	31.1	0	4	90	0.00	30.032 
09:20	34.0	34.0	34.0	89	31.1	2	5	90	0.00	30.032 
09:25	34.0	34.0	34.0	89	31.1	2	6	90	0.00	30.032 
09:30	34.1	34.1	34.1	89	31.2	2	5	90	0.00	30.040 
09:35	34.1	34.1	34.1	89	31.2	2	5	68	0.00	30.040 
09:40	34.1	34.1	34.1	90	31.5	2	6	90	0.00	30.040 
09:45	34.3	34.3	34.3	90	31.7	2	4	90	0.00	30.045 
09:50	34.4	34.4	34.4	90	31.8	1	3	90	0.00	30.045 
09:55	34.6	34.6	34.6	90	32.0	1	2	90	0.00	30.045 
10:00	34.9	34.9	34.9	90	32.3	0	2	90	0.00	30.048 
10:05	35.0	35.0	35.0	90	32.4	1	4	90	0.00	30.048 
10:10	35.3	35.3	35.3	90	32.7	1	4	90	0.00	30.048 
10:15	35.6	35.6	35.6	89	32.7	0	2	90	0.00	30.047 
10:20	36.0	36.0	36.0	89	33.1	1	3	90	0.00	30.047 
10:25	36.3	36.3	36.3	88	33.1	0	2	90	0.00	30.047 
10:30	36.6	36.6	36.6	88	33.4	1	4	90	0.00	30.046 
10:35	37.0	37.0	37.0	88	33.8	1	3	90	0.00	30.046 
10:40	37.3	37.3	37.3	87	33.8	0	2	90	0.00	30.046 
10:45	37.8	37.8	37.8	86	34.0	1	2	90	0.00	30.051 
10:50	38.2	38.2	38.2	85	34.1	0	2	90	0.00	30.051 
10:55	38.6	38.6	38.6	84	34.2	0	2	90	0.00	30.051 
11:00	39.1	39.1	39.1	83	34.4	0	3	90	0.00	30.051 
11:05	39.6	39.6	39.6	82	34.6	1	3	90	0.00	30.051 
11:10	40.1	40.1	40.1	78	33.8	3	6	90	0.00	30.051 
11:15	40.6	40.6	40.6	79	34.6	1	4	112	0.00	30.055 
11:20	41.3	41.3	41.3	77	34.6	1	5	112	0.00	30.055 
11:25	41.9	41.9	41.9	75	34.6	1	5	68	0.00	30.055 
11:30	42.5	42.5	42.5	74	34.8	0	2	90	0.00	30.054 
11:35	43.1	43.1	43.1	72	34.7	0	2	90	0.00	30.054 
11:40	43.5	43.5	43.5	71	34.7	1	4	90	0.00	30.054 
11:45	43.9	43.9	43.9	70	34.8	2	9	90	0.00	30.044 
11:50	44.1	44.1	44.1	68	34.2	1	6	90	0.00	30.044 
11:55	44.5	44.5	44.5	67	34.2	2	9	90	0.00	30.044 
12:00	44.8	44.8	44.8	67	34.5	1	3	112	0.00	30.039 
12:05	45.4	45.4	45.4	66	34.7	2	6	112	0.00	30.039 
12:10	45.7	45.7	45.7	63	33.8	2	6	112	0.00	30.039 
12:15	46.0	46.0	46.0	62	33.7	2	9	90	0.00	30.034 
12:20	46.0	43.5	46.0	61	33.3	5	11	90	0.00	30.034 
12:25	46.2	46.2	46.2	62	33.9	1	6	112	0.00	30.034 
12:30	46.4	46.4	46.4	62	34.1	2	7	45	0.00	30.035 
12:35	46.5	46.5	46.5	63	34.6	2	6	90	0.00	30.035 
12:40	46.7	46.7	46.7	62	34.4	2	5	90	0.00	30.035 
12:45	46.8	46.8	46.8	59	33.2	3	8	90	0.00	30.031 
12:50	46.8	46.8	46.8	61	34.1	2	9	90	0.00	30.031 
12:55	47.0	47.0	47.0	59	33.4	3	9	90	0.00	30.031 
13:00	46.8	46.8	46.8	59	33.2	3	6	90	0.00	30.032 
13:05	46.7	45.1	46.7	59	33.1	4	10	90	0.00	30.032 
13:10	46.5	46.5	46.5	59	33.0	1	6	90	0.00	30.032 
13:15	46.5	46.5	46.5	59	33.0	2	5	68	0.00	30.027 
13:20	47.0	47.0	47.0	59	33.4	2	6	90	0.00	30.027 
13:25	47.4	47.4	47.4	56	32.5	0	3	112	0.00	30.027 
13:30	47.7	47.7	47.7	56	32.8	0	2	68	0.00	30.025 
13:35	47.7	47.7	47.7	53	31.4	1	4	22	0.00	30.025 
13:40	47.9	47.9	47.9	55	32.5	1	4	90	0.00	30.025 
13:45	47.9	47.9	47.9	54	32.1	1	3	90	0.00	30.028 
13:50	47.9	47.9	47.9	54	32.1	2	5	90	0.00	30.028 
13:55	47.9	47.9	47.9	54	32.1	2	6	112	0.00	30.028 
14:00	48.0	48.0	48.0	53	31.7	3	7	90	0.00	30.028 
14:05	48.0	48.0	48.0	53	31.7	2	6	90	0.00	30.028 
14:10	48.2	48.2	48.2	53	31.9	1	6	112	0.00	30.028 
14:15	48.3	48.3	48.3	54	32.4	0	2	0	0.00	30.029 
14:20	48.5	48.5	48.5	53	32.2	0	1	0	0.00	30.029 
14:25	48.8	48.8	48.8	53	32.4	1	4	90	0.00	30.029 
14:30	48.8	48.8	48.8	50	31.0	1	5	22	0.00	30.023 
14:35	48.6	48.6	48.6	50	30.8	1	5	112	0.00	30.023 
14:40	48.3	48.3	48.3	50	30.5	1	3	112	0.00	30.023 
14:45	48.5	48.5	48.5	52	31.7	0	2	112	0.00	30.024 
14:50	48.8	48.8	48.8	52	32.0	0	2	112	0.00	30.024 
14:55	48.6	48.6	48.6	50	30.8	1	2	112	0.00	30.024 
15:00	48.6	48.6	48.6	50	30.8	1	5	90	0.00	30.023 
15:05	48.6	48.6	48.6	50	30.8	1	4	90	0.00	30.023 
15:10	48.8	48.8	48.8	50	31.0	0	2	90	0.00	30.023 
15:15	48.9	48.9	48.9	50	31.1	0	2	90	0.00	30.025 
15:20	48.9	48.9	48.9	49	30.6	0	2	90	0.00	30.025 
15:25	48.9	48.9	48.9	49	30.6	0	1	68	0.00	30.025 
15:30	48.9	48.9	48.9	49	30.6	1	2	68	0.00	30.030 
15:35	48.9	48.9	48.9	49	30.6	1	3	45	0.00	30.030 
15:40	48.8	48.8	48.8	48	30.0	1	3	292	0.00	30.030 
15:45	48.8	48.8	48.8	50	31.0	0	2	202	0.00	30.035 
15:50	48.6	48.6	48.6	49	30.3	2	6	90	0.00	30.035 
15:55	48.6	48.6	48.6	49	30.3	0	4	90	0.00	30.035 
16:00	48.6	48.6	48.6	49	30.3	0	2	112	0.00	30.038 
16:05	48.5	48.5	48.5	49	30.2	1	3	112	0.00	30.038 
16:10	48.3	48.3	48.3	49	30.0	1	5	68	0.00	30.038 
16:15	48.2	48.2	48.2	49	29.9	0	1	68	0.00	30.051 
16:20	48.2	48.2	48.2	50	30.4	0	1	68	0.00	30.051 
16:25	48.2	48.2	48.2	51	30.9	0	3	68	0.00	30.051 
16:30	48.0	48.0	48.0	50	30.3	0	4	68	0.00	30.057 
16:35	47.9	47.9	47.9	50	30.2	0	1	68	0.00	30.057 
16:40	47.7	47.7	47.7	50	30.0	0	2	68	0.00	30.057 
16:45	47.6	47.6	47.6	51	30.4	0	2	68	0.00	30.059 
16:50	47.4	47.4	47.4	51	30.2	0	2	68	0.00	30.059 
16:55	47.1	47.1	47.1	51	29.9	0	1	68	0.00	30.059 
17:00	47.0	47.0	47.0	52	30.3	0	1	68	0.00	30.068 
17:05	46.7	46.7	46.7	52	30.0	0	1	68	0.00	30.068 
17:10	46.4	46.4	46.4	52	29.7	0	1	68	0.00	30.068 
17:15	46.1	46.1	46.1	53	29.9	0	0	---	0.00	30.070 
17:20	45.7	45.7	45.7	53	29.6	0	0	---	0.00	30.070 
17:25	45.2	45.2	45.2	54	29.6	0	0	---	0.00	30.070 
17:30	44.8	44.8	44.8	54	29.2	0	0	---	0.00	30.074 
17:35	44.3	44.3	44.3	55	29.2	0	0	---	0.00	30.074 
17:40	43.9	43.9	43.9	56	29.2	0	0	---	0.00	30.074 
17:45	43.5	43.5	43.5	58	29.7	0	0	---	0.00	30.075 
17:50	42.9	42.9	42.9	58	29.2	0	0	---	0.00	30.075 
17:55	42.3	42.3	42.3	59	29.0	0	0	---	0.00	30.075 
18:00	41.9	41.9	41.9	60	29.0	0	0	---	0.00	30.082 
18:05	41.3	41.3	41.3	61	28.9	0	0	---	0.00	30.082 
18:10	40.9	40.9	40.9	62	28.9	0	0	---	0.00	30.082 
18:15	40.5	40.5	40.5	63	28.9	0	0	---	0.00	30.093 
18:20	40.2	40.2	40.2	64	29.0	0	0	---	0.00	30.093 
18:25	39.8	39.8	39.8	65	29.0	0	0	---	0.00	30.093 
18:30	39.5	39.5	39.5	65	28.7	0	0	---	0.00	30.101 
18:35	39.1	39.1	39.1	66	28.7	0	0	---	0.00	30.101 
18:40	38.8	38.8	38.8	68	29.2	0	0	---	0.00	30.101 
18:45	38.3	38.3	38.3	68	28.7	0	0	---	0.00	30.109 
18:50	38.0	38.0	38.0	69	28.7	0	0	---	0.00	30.109 
18:55	37.8	37.8	37.8	70	28.9	0	0	---	0.00	30.109 
19:00	37.6	37.6	37.6	71	29.1	0	0	---	0.00	30.115 
19:05	37.5	37.5	37.5	71	29.0	0	0	---	0.00	30.115 
19:10	37.3	37.3	37.3	72	29.1	0	0	---	0.00	30.115 
19:15	37.2	37.2	37.2	72	29.0	0	0	---	0.00	30.123 
19:20	36.9	36.9	36.9	72	28.7	0	0	---	0.00	30.123 
19:25	36.6	36.6	36.6	73	28.8	0	0	---	0.00	30.123 
19:30	36.3	36.3	36.3	73	28.5	0	0	---	0.00	30.123 
19:35	36.0	36.0	36.0	73	28.2	0	0	---	0.00	30.123 
19:40	35.8	35.8	35.8	74	28.3	0	0	---	0.00	30.123 
19:45	35.6	35.6	35.6	75	28.5	0	0	---	0.00	30.122 
19:50	35.5	35.5	35.5	75	28.4	0	0	---	0.00	30.122 
19:55	35.3	35.3	35.3	76	28.5	0	0	---	0.00	30.122 
20:00	35.0	35.0	35.0	76	28.2	0	0	---	0.00	30.122 
20:05	34.7	34.7	34.7	76	27.9	0	0	---	0.00	30.122 
20:10	34.4	34.4	34.4	77	27.9	0	0	---	0.00	30.122 
20:15	34.3	34.3	34.3	77	27.9	0	0	---	0.00	30.121 
20:20	34.1	34.1	34.1	77	27.7	0	0	---	0.00	30.121 
20:25	33.8	33.8	33.8	78	27.7	0	0	---	0.00	30.121 
20:30	33.7	33.7	33.7	78	27.6	0	0	---	0.00	30.126 
20:35	33.4	33.4	33.4	78	27.3	0	0	---	0.00	30.126 
20:40	33.4	33.4	33.4	79	27.6	0	0	---	0.00	30.126 
20:45	33.2	33.2	33.2	80	27.7	0	0	---	0.00	30.133 
20:50	33.1	33.1	33.1	80	27.6	0	0	---	0.00	30.133 
20:55	33.1	33.1	33.1	80	27.6	0	0	---	0.00	30.133 
21:00	32.9	32.9	32.9	80	27.4	0	0	---	0.00	30.136 
21:05	32.7	32.7	32.7	81	27.5	0	0	---	0.00	30.136 
21:10	32.5	32.5	32.5	81	27.3	0	0	---	0.00	30.136 
21:15	32.5	32.5	32.5	81	27.3	0	0	---	0.00	30.143 
21:20	32.4	32.4	32.4	81	27.2	0	0	---	0.00	30.143 
21:25	32.4	32.4	32.4	82	27.5	0	0	---	0.00	30.143 
21:30	32.4	32.4	32.4	82	27.5	0	0	---	0.00	30.148 
21:35	32.2	32.2	32.2	82	27.3	0	0	---	0.00	30.148 
21:40	32.1	32.1	32.1	82	27.2	0	0	---	0.00	30.148 
21:45	31.9	31.9	31.9	82	27.0	0	0	---	0.00	30.151 
21:50	31.8	31.8	31.8	82	26.9	0	0	---	0.00	30.151 
21:55	31.5	31.5	31.5	82	26.7	0	0	---	0.00	30.151 
22:00	31.5	31.5	31.5	82	26.7	0	0	---	0.00	30.155 
22:05	31.3	31.3	31.3	83	26.7	0	0	---	0.00	30.155 
22:10	31.2	31.2	31.2	83	26.6	0	0	---	0.00	30.155 
22:15	31.2	31.2	31.2	83	26.6	0	0	---	0.00	30.150 
22:20	31.0	31.0	31.0	83	26.5	0	0	---	0.00	30.150 
22:25	30.9	30.9	30.9	84	26.6	0	0	---	0.00	30.150 
22:30	30.7	30.7	30.7	84	26.4	0	0	---	0.00	30.150 
22:35	30.7	30.7	30.7	84	26.4	0	0	---	0.00	30.150 
22:40	30.6	30.6	30.6	84	26.4	0	0	---	0.00	30.150 
22:45	30.6	30.6	30.6	84	26.4	0	0	---	0.00	30.154 
22:50	30.6	30.6	30.6	84	26.4	0	0	---	0.00	30.154 
22:55	30.6	30.6	30.6	85	26.6	0	0	---	0.00	30.154 
23:00	30.4	30.4	30.4	85	26.4	0	0	---	0.00	30.159 
23:05	30.4	30.4	30.4	85	26.4	0	0	---	0.00	30.159 
23:10	30.3	30.3	30.3	85	26.3	0	0	---	0.00	30.159 
23:15	30.3	30.3	30.3	86	26.6	0	0	---	0.00	30.153 
23:20	30.1	30.1	30.1	86	26.4	0	0	---	0.00	30.153 
23:25	30.1	30.1	30.1	86	26.4	0	0	---	0.00	30.153 
23:30	30.0	30.0	30.0	86	26.3	0	0	---	0.00	30.155 
23:35	29.8	29.8	29.8	86	26.1	0	0	---	0.00	30.155 
23:40	29.8	29.8	29.8	86	26.1	0	0	---	0.00	30.155 
23:45	29.7	29.7	29.7	87	26.3	0	0	---	0.00	30.155 
23:50	29.7	29.7	29.7	87	26.3	0	0	---	0.00	30.155 
23:55	29.5	29.5	29.5	87	26.1	0	0	---	0.00	30.155 

CoCoRaHS
IN-AL-39
A2 Web Hosting
Creative Commons License
GoDaddy
search engine by freefind advanced

loaded 2018-11-20 14:20:51 • last modified 2010-11-18 10:43:29
Privacy PolicyDisclaimer
• wx.awcolley.com is powered by PmWiki v.2002016 •
• all content (unless otherwise noted) © 2018 A W Colley